createdAt,value
2023-05-19T00:01:37.564Z,3.58
2023-05-19T00:04:24.135Z,3.13
2023-05-19T00:07:11.311Z,3.47
2023-05-19T00:09:57.095Z,3.75
2023-05-19T00:12:43.727Z,3.25
2023-05-19T00:15:29.363Z,3.10
2023-05-19T00:18:16.536Z,4.25
2023-05-19T00:21:02.100Z,4.07
2023-05-19T00:23:47.554Z,3.17
2023-05-19T00:26:33.395Z,3.55
2023-05-19T00:29:19.194Z,3.90
2023-05-19T00:32:05.418Z,3.38
2023-05-19T00:34:51.057Z,3.85
2023-05-19T00:37:36.530Z,4.25
2023-05-19T00:40:23.676Z,3.38
2023-05-19T00:43:09.228Z,3.90
2023-05-19T00:45:54.787Z,3.83
2023-05-19T00:48:40.416Z,4.22
2023-05-19T00:51:28.212Z,3.42
2023-05-19T00:54:13.868Z,3.78
2023-05-19T00:57:00.420Z,4.35
2023-05-19T00:59:46.258Z,4.20
2023-05-19T01:02:32.475Z,4.13
2023-05-19T01:05:18.407Z,3.85
2023-05-19T01:08:04.352Z,4.15
2023-05-19T01:10:49.738Z,3.78
2023-05-19T01:13:36.129Z,3.83
2023-05-19T01:16:27.169Z,3.95
2023-05-19T01:19:31.056Z,3.53
2023-05-19T01:22:37.945Z,3.72
2023-05-19T01:25:44.222Z,3.90
2023-05-19T01:28:41.803Z,3.42
2023-05-19T01:31:27.747Z,4.32
2023-05-19T01:34:14.564Z,3.28
2023-05-19T01:37:01.320Z,3.88
2023-05-19T01:39:48.011Z,4.13
2023-05-19T01:42:37.398Z,5.03
2023-05-19T01:45:24.636Z,4.00
2023-05-19T01:48:11.282Z,4.03
2023-05-19T01:50:57.448Z,4.63
2023-05-19T01:53:43.132Z,4.40
2023-05-19T01:56:45.111Z,3.90
2023-05-19T01:59:49.760Z,4.15
2023-05-19T02:02:54.437Z,4.38
2023-05-19T02:06:17.214Z,4.45
2023-05-19T02:09:34.468Z,4.90
2023-05-19T02:12:28.302Z,4.40
2023-05-19T02:15:21.107Z,4.80
2023-05-19T02:18:12.402Z,5.63
2023-05-19T02:20:57.888Z,3.90
2023-05-19T02:23:43.518Z,4.10
2023-05-19T02:26:28.892Z,4.05
2023-05-19T02:29:14.490Z,4.78
2023-05-19T02:32:02.079Z,4.43
2023-05-19T02:34:47.524Z,5.45
2023-05-19T02:37:32.754Z,4.38
2023-05-19T02:40:18.492Z,4.60
2023-05-19T02:43:04.264Z,5.07
2023-05-19T02:45:49.929Z,4.85
2023-05-19T02:48:35.419Z,5.13
2023-05-19T02:51:21.001Z,4.57
2023-05-19T02:54:06.867Z,4.80
2023-05-19T02:56:52.252Z,4.70
2023-05-19T02:59:37.871Z,5.13
2023-05-19T03:02:23.508Z,5.40
2023-05-19T03:05:10.247Z,5.35
2023-05-19T03:07:56.322Z,5.05
2023-05-19T03:10:42.079Z,7.05
2023-05-19T03:13:27.907Z,6.13
2023-05-19T03:16:14.148Z,6.05
2023-05-19T03:19:00.233Z,6.35
2023-05-19T03:21:46.337Z,5.25
2023-05-19T03:24:31.796Z,5.38
2023-05-19T03:27:17.460Z,5.80
2023-05-19T03:30:04.984Z,5.03
2023-05-19T03:32:52.208Z,4.80
2023-05-19T03:35:37.726Z,5.00
2023-05-19T03:38:23.364Z,5.65
2023-05-19T03:41:09.025Z,4.75
2023-05-19T03:43:54.724Z,4.82
2023-05-19T03:46:40.166Z,4.75
2023-05-19T03:49:25.666Z,4.70
2023-05-19T03:52:12.969Z,4.85
2023-05-19T03:54:58.858Z,4.70
2023-05-19T03:57:44.453Z,4.60
2023-05-19T04:00:29.945Z,4.88
2023-05-19T04:03:15.477Z,4.47
2023-05-19T04:06:00.892Z,5.82
2023-05-19T04:08:46.530Z,5.15
2023-05-19T04:11:32.112Z,5.07
2023-05-19T04:14:17.684Z,5.13
2023-05-19T04:17:03.247Z,4.63
2023-05-19T04:19:48.901Z,5.15
2023-05-19T04:22:34.432Z,4.78
2023-05-19T04:25:20.388Z,5.70
2023-05-19T04:28:06.162Z,5.32
2023-05-19T04:30:52.064Z,4.75
2023-05-19T04:33:38.323Z,4.95
2023-05-19T04:36:24.032Z,4.95
2023-05-19T04:39:12.250Z,4.82
2023-05-19T04:41:57.562Z,4.85
2023-05-19T04:44:43.061Z,5.90
2023-05-19T04:47:30.145Z,5.47
2023-05-19T04:50:16.835Z,5.25
2023-05-19T04:53:02.539Z,4.88
2023-05-19T04:55:48.209Z,4.90
2023-05-19T04:58:34.123Z,5.00
2023-05-19T05:01:22.240Z,5.22
2023-05-19T05:04:07.825Z,5.57
2023-05-19T05:06:53.335Z,5.15
2023-05-19T05:09:38.858Z,5.60
2023-05-19T05:12:24.702Z,6.00
2023-05-19T05:15:11.295Z,5.38
2023-05-19T05:17:57.305Z,5.72
2023-05-19T05:20:43.947Z,5.75
2023-05-19T05:23:29.787Z,5.90
2023-05-19T05:26:19.597Z,5.68
2023-05-19T05:29:05.106Z,6.10
2023-05-19T05:31:50.753Z,6.05
2023-05-19T05:34:38.108Z,6.20
2023-05-19T05:37:23.680Z,4.80
2023-05-19T05:40:09.511Z,5.50
2023-05-19T05:42:59.105Z,5.40
2023-05-19T05:45:44.919Z,5.38
2023-05-19T05:48:30.832Z,5.22
2023-05-19T05:51:16.533Z,5.45
2023-05-19T05:54:02.828Z,5.55
2023-05-19T05:56:48.998Z,5.28
2023-05-19T05:59:34.932Z,5.63
2023-05-19T06:02:21.834Z,6.30
2023-05-19T06:05:07.914Z,6.45
2023-05-19T06:07:53.600Z,6.45
2023-05-19T06:10:41.716Z,6.15
2023-05-19T06:13:27.556Z,7.35
2023-05-19T06:16:13.336Z,5.72
2023-05-19T06:18:58.993Z,7.07
2023-05-19T06:21:44.570Z,6.53
2023-05-19T06:24:30.648Z,7.78
2023-05-19T06:27:16.097Z,7.50
2023-05-19T06:30:02.236Z,7.43
2023-05-19T06:32:47.646Z,7.55
2023-05-19T06:35:33.292Z,7.60
2023-05-19T06:38:18.738Z,7.40
2023-05-19T06:41:04.279Z,7.38
2023-05-19T06:43:49.886Z,8.02
2023-05-19T06:46:35.783Z,8.65
2023-05-19T06:49:21.236Z,7.55
2023-05-19T06:52:06.695Z,9.27
2023-05-19T06:54:52.252Z,7.45
2023-05-19T06:57:37.830Z,7.47
2023-05-19T07:00:24.103Z,7.82
2023-05-19T07:03:11.200Z,7.32
2023-05-19T07:05:56.943Z,7.63
2023-05-19T07:08:42.314Z,7.25
2023-05-19T07:11:28.576Z,6.53
2023-05-19T07:14:13.974Z,6.95
2023-05-19T07:16:59.438Z,7.35
2023-05-19T07:19:45.164Z,6.13
2023-05-19T07:22:30.788Z,7.40
2023-05-19T07:25:16.788Z,6.90
2023-05-19T07:28:02.381Z,7.47
2023-05-19T07:30:48.309Z,6.05
2023-05-19T07:33:33.846Z,6.07
2023-05-19T07:36:19.433Z,6.53
2023-05-19T07:39:04.854Z,6.38
2023-05-19T07:41:54.195Z,7.10
2023-05-19T07:44:39.789Z,6.30
2023-05-19T07:47:25.690Z,6.55
2023-05-19T07:50:11.356Z,7.05
2023-05-19T07:52:56.957Z,6.85
2023-05-19T07:55:42.449Z,7.03
2023-05-19T07:58:28.014Z,7.90
2023-05-19T08:01:13.747Z,7.30
2023-05-19T08:03:59.676Z,7.65
2023-05-19T08:06:45.442Z,8.98
2023-05-19T08:09:31.033Z,8.73
2023-05-19T08:12:16.414Z,8.00
2023-05-19T08:15:02.171Z,8.05
2023-05-19T08:17:47.768Z,6.88
2023-05-19T08:20:34.211Z,6.43
2023-05-19T08:23:20.274Z,7.35
2023-05-19T08:26:05.765Z,6.78
2023-05-19T08:28:51.629Z,6.53
2023-05-19T08:31:37.272Z,6.07
2023-05-19T08:34:22.982Z,7.00
2023-05-19T08:37:08.492Z,7.32
2023-05-19T08:39:53.875Z,7.25
2023-05-19T08:42:39.447Z,9.32
2023-05-19T08:45:25.205Z,9.18
2023-05-19T08:48:11.358Z,7.78
2023-05-19T08:51:01.681Z,8.57
2023-05-19T08:53:53.702Z,7.80
2023-05-19T08:56:39.503Z,6.88
2023-05-19T08:59:25.655Z,8.35
2023-05-19T09:02:13.424Z,7.72
2023-05-19T09:04:59.307Z,6.72
2023-05-19T09:07:46.232Z,7.45
2023-05-19T09:10:31.711Z,7.20
2023-05-19T09:13:17.223Z,7.35
2023-05-19T09:16:03.413Z,7.45
2023-05-19T09:18:56.941Z,8.35
2023-05-19T09:21:43.581Z,7.72
2023-05-19T09:24:30.201Z,7.47
2023-05-19T09:27:21.430Z,7.32
2023-05-19T09:30:10.407Z,6.15
2023-05-19T09:32:56.082Z,5.55
2023-05-19T09:35:47.242Z,6.40
2023-05-19T09:38:33.484Z,7.55
2023-05-19T09:41:19.664Z,5.85
2023-05-19T09:44:07.386Z,5.38
2023-05-19T09:46:54.456Z,5.22
2023-05-19T09:49:47.302Z,5.90
2023-05-19T09:52:36.233Z,5.65
2023-05-19T09:55:25.819Z,5.60
2023-05-19T09:58:17.648Z,6.32
2023-05-19T10:01:07.592Z,6.55
2023-05-19T10:03:53.699Z,6.22
2023-05-19T10:06:39.889Z,6.13
2023-05-19T10:09:29.600Z,5.07
2023-05-19T10:12:15.430Z,5.32
2023-05-19T10:15:02.180Z,5.35
2023-05-19T10:17:49.798Z,4.57
2023-05-19T10:20:36.280Z,6.45
2023-05-19T10:23:22.419Z,5.05
2023-05-19T10:26:09.717Z,4.78
2023-05-19T10:28:56.737Z,5.20
2023-05-19T10:31:42.588Z,6.20
2023-05-19T10:35:02.617Z,4.78
2023-05-19T10:38:10.889Z,4.90
2023-05-19T10:41:31.874Z,4.82
2023-05-19T10:44:39.725Z,5.22
2023-05-19T10:47:25.851Z,5.20
2023-05-19T10:50:11.630Z,6.25
2023-05-19T10:52:58.051Z,4.82
2023-05-19T10:55:56.745Z,5.28
2023-05-19T10:58:45.339Z,5.20
2023-05-19T11:01:33.286Z,4.63
2023-05-19T11:04:20.060Z,4.22
2023-05-19T11:07:05.589Z,4.25
2023-05-19T11:09:52.339Z,4.43
2023-05-19T11:12:46.044Z,4.70
2023-05-19T11:15:36.564Z,5.65
2023-05-19T11:18:22.135Z,4.50
2023-05-19T11:21:07.720Z,5.05
2023-05-19T11:23:53.358Z,4.40
2023-05-19T11:26:45.601Z,5.30
2023-05-19T11:29:32.946Z,5.50
2023-05-19T11:32:27.588Z,5.68
2023-05-19T11:35:15.605Z,5.00
2023-05-19T11:38:03.064Z,5.30
2023-05-19T11:40:49.904Z,4.43
2023-05-19T11:43:35.324Z,4.50
2023-05-19T11:46:20.959Z,4.20
2023-05-19T11:49:06.705Z,5.13
2023-05-19T11:51:52.234Z,4.97
2023-05-19T11:54:39.322Z,4.72
2023-05-19T11:57:24.746Z,4.93
2023-05-19T12:00:12.568Z,4.78
2023-05-19T12:02:58.358Z,4.38
2023-05-19T12:05:46.891Z,4.53
2023-05-19T12:08:32.866Z,5.03
2023-05-19T12:11:20.063Z,4.57
2023-05-19T12:14:06.181Z,5.13
2023-05-19T12:16:51.998Z,5.18
2023-05-19T12:19:37.620Z,4.57
2023-05-19T12:22:23.400Z,4.53
2023-05-19T12:25:09.577Z,4.68
2023-05-19T12:28:03.184Z,4.50
2023-05-19T12:30:52.252Z,4.45
2023-05-19T12:33:38.061Z,4.78
2023-05-19T12:36:25.293Z,4.10
2023-05-19T12:39:11.677Z,3.30
2023-05-19T12:42:11.332Z,4.03
2023-05-19T12:44:57.349Z,4.65
2023-05-19T12:47:48.701Z,3.47
2023-05-19T12:50:34.991Z,3.78
2023-05-19T12:53:21.176Z,4.53
2023-05-19T12:56:17.132Z,4.40
2023-05-19T12:59:02.899Z,4.22
2023-05-19T13:01:58.749Z,5.28
2023-05-19T13:04:44.586Z,4.53
2023-05-19T13:07:30.514Z,5.03
2023-05-19T13:10:17.037Z,6.53
2023-05-19T13:13:03.317Z,6.25
2023-05-19T13:15:49.219Z,6.03
2023-05-19T13:18:37.656Z,5.45
2023-05-19T13:21:23.640Z,6.28
2023-05-19T13:24:09.164Z,6.03
2023-05-19T13:26:55.874Z,6.78
2023-05-19T13:29:41.461Z,6.28
2023-05-19T13:32:26.991Z,6.43
2023-05-19T13:35:14.169Z,5.97
2023-05-19T13:37:59.427Z,6.18
2023-05-19T13:40:45.771Z,5.80
2023-05-19T13:43:31.722Z,5.57
2023-05-19T13:46:17.052Z,5.90
2023-05-19T13:49:02.488Z,6.20
2023-05-19T13:51:47.865Z,4.63
2023-05-19T13:54:34.116Z,5.25
2023-05-19T13:57:19.629Z,5.68
2023-05-19T14:00:06.042Z,5.53
2023-05-19T14:02:51.979Z,5.28
2023-05-19T14:05:37.485Z,5.18
2023-05-19T14:08:23.071Z,5.43
2023-05-19T14:11:08.534Z,5.05
2023-05-19T14:13:54.389Z,4.70
2023-05-19T14:16:43.622Z,5.22
2023-05-19T14:19:30.411Z,5.13
2023-05-19T14:22:15.946Z,5.88
2023-05-19T14:25:02.489Z,4.93
2023-05-19T14:27:48.110Z,4.85
2023-05-19T14:30:33.818Z,4.88
2023-05-19T14:33:20.439Z,5.00
2023-05-19T14:36:06.560Z,4.78
2023-05-19T14:38:51.720Z,5.65
2023-05-19T14:41:37.190Z,5.63
2023-05-19T14:44:22.959Z,4.28
2023-05-19T14:47:08.490Z,4.65
2023-05-19T14:49:54.389Z,4.75
2023-05-19T14:52:40.173Z,5.03
2023-05-19T14:55:25.556Z,4.93
2023-05-19T14:58:26.915Z,4.72
2023-05-19T15:01:13.844Z,4.72
2023-05-19T15:03:59.382Z,4.72
2023-05-19T15:06:48.107Z,4.45
2023-05-19T15:09:35.702Z,5.25
2023-05-19T15:12:21.097Z,5.00
2023-05-19T15:15:08.466Z,4.45
2023-05-19T15:17:54.303Z,4.45
2023-05-19T15:20:39.953Z,5.00
2023-05-19T15:23:25.975Z,5.78
2023-05-19T15:26:11.680Z,5.25
2023-05-19T15:28:57.271Z,5.13
2023-05-19T15:31:43.254Z,5.28
2023-05-19T15:34:29.002Z,6.15
2023-05-19T15:37:14.428Z,5.47
2023-05-19T15:40:00.067Z,6.55
2023-05-19T15:42:45.532Z,6.53
2023-05-19T15:45:31.061Z,6.53
2023-05-19T15:48:16.427Z,5.32
2023-05-19T15:51:02.257Z,5.53
2023-05-19T15:53:47.967Z,6.85
2023-05-19T15:56:33.326Z,5.90
2023-05-19T15:59:18.873Z,5.90
2023-05-19T16:02:04.410Z,6.47
2023-05-19T16:04:50.021Z,5.18
2023-05-19T16:07:35.913Z,5.32
2023-05-19T16:10:21.623Z,5.47
2023-05-19T16:13:07.375Z,6.40
2023-05-19T16:15:52.967Z,5.97
2023-05-19T16:18:38.428Z,6.72
2023-05-19T16:21:23.833Z,6.28
2023-05-19T16:24:09.480Z,6.65
2023-05-19T16:26:55.027Z,7.32
2023-05-19T16:29:40.334Z,7.60
2023-05-19T16:32:25.989Z,5.82
2023-05-19T16:35:11.828Z,6.38
2023-05-19T16:37:57.268Z,6.82
2023-05-19T16:40:42.932Z,6.32
2023-05-19T16:43:28.358Z,6.15
2023-05-19T16:46:13.824Z,6.40
2023-05-19T16:48:59.299Z,7.18
2023-05-19T16:51:45.723Z,7.40
2023-05-19T16:54:32.460Z,6.03
2023-05-19T16:57:18.082Z,6.32
2023-05-19T17:00:04.289Z,6.40
2023-05-19T17:02:49.908Z,7.43
2023-05-19T17:05:36.286Z,6.28
2023-05-19T17:08:22.339Z,6.40
2023-05-19T17:11:08.387Z,6.30
2023-05-19T17:13:55.489Z,5.75
2023-05-19T17:16:41.259Z,6.40
2023-05-19T17:19:27.073Z,6.20
2023-05-19T17:22:12.605Z,6.88
2023-05-19T17:24:58.267Z,6.70
2023-05-19T17:27:43.755Z,6.63
2023-05-19T17:30:29.335Z,6.32
2023-05-19T17:33:15.508Z,5.65
2023-05-19T17:36:03.559Z,6.47
2023-05-19T17:38:49.516Z,6.35
2023-05-19T17:41:35.066Z,5.95
2023-05-19T17:44:20.716Z,6.10
2023-05-19T17:47:08.052Z,6.55
2023-05-19T17:49:53.528Z,5.40
2023-05-19T17:52:40.504Z,5.80
2023-05-19T17:55:29.988Z,6.53
2023-05-19T17:58:15.923Z,5.22
2023-05-19T18:01:01.356Z,5.50
2023-05-19T18:03:49.839Z,5.22
2023-05-19T18:06:38.564Z,4.50
2023-05-19T18:09:28.916Z,5.25
2023-05-19T18:12:14.571Z,6.30
2023-05-19T18:15:00.143Z,5.07
2023-05-19T18:17:46.328Z,4.15
2023-05-19T18:20:34.006Z,4.47
2023-05-19T18:23:20.588Z,4.70
2023-05-19T18:26:07.215Z,4.47
2023-05-19T18:28:52.369Z,4.22
2023-05-19T18:31:38.071Z,4.38
2023-05-19T18:34:23.624Z,4.47
2023-05-19T18:37:09.096Z,4.10
2023-05-19T18:39:54.910Z,4.43
2023-05-19T18:42:40.055Z,4.53
2023-05-19T18:45:25.951Z,4.40
2023-05-19T18:48:11.221Z,3.80
2023-05-19T18:50:57.238Z,4.60
2023-05-19T18:53:43.159Z,3.92
2023-05-19T18:56:31.167Z,3.88
2023-05-19T18:59:16.737Z,4.43
2023-05-19T19:02:02.161Z,3.75
2023-05-19T19:04:47.718Z,4.50
2023-05-19T19:07:33.295Z,3.60
2023-05-19T19:10:19.139Z,3.80
2023-05-19T19:13:05.396Z,4.13
2023-05-19T19:15:50.769Z,3.85
2023-05-19T19:18:36.710Z,3.83
2023-05-19T19:21:24.116Z,4.18
2023-05-19T19:24:09.672Z,4.13
2023-05-19T19:26:55.329Z,3.90
2023-05-19T19:29:41.575Z,3.83
2023-05-19T19:32:27.197Z,3.97
2023-05-19T19:35:12.996Z,3.55
2023-05-19T19:37:58.759Z,4.40
2023-05-19T19:40:44.894Z,4.05
2023-05-19T19:43:31.335Z,4.97
2023-05-19T19:46:17.509Z,4.55
2023-05-19T19:49:03.845Z,3.33
2023-05-19T19:51:49.690Z,5.03
2023-05-19T19:54:36.154Z,7.40
2023-05-19T19:57:22.458Z,4.70
2023-05-19T20:00:09.404Z,4.43
2023-05-19T20:03:05.067Z,3.92
2023-05-19T20:05:52.372Z,3.75
2023-05-19T20:08:38.066Z,5.32
2023-05-19T20:11:24.557Z,4.28
2023-05-19T20:14:10.775Z,4.32
2023-05-19T20:16:56.594Z,3.90
2023-05-19T20:19:42.275Z,4.47
2023-05-19T20:22:28.774Z,4.05
2023-05-19T20:25:14.683Z,4.40
2023-05-19T20:28:02.231Z,4.40
2023-05-19T20:30:48.304Z,4.32
2023-05-19T20:33:34.825Z,4.38
2023-05-19T20:36:21.183Z,6.00
2023-05-19T20:39:13.829Z,4.85
2023-05-19T20:41:59.780Z,5.80
2023-05-19T20:44:50.622Z,4.65
2023-05-19T20:47:37.053Z,5.30
2023-05-19T20:50:23.391Z,5.05
2023-05-19T20:53:09.072Z,6.00
2023-05-19T20:55:54.821Z,4.72
2023-05-19T20:58:40.556Z,5.57
2023-05-19T21:01:26.603Z,5.18
2023-05-19T21:04:12.377Z,5.60
2023-05-19T21:07:00.588Z,5.32
2023-05-19T21:09:48.051Z,5.88
2023-05-19T21:12:34.405Z,7.20
2023-05-19T21:15:19.928Z,5.68
2023-05-19T21:18:06.555Z,6.38
2023-05-19T21:20:52.155Z,5.75
2023-05-19T21:23:37.597Z,6.15
2023-05-19T21:26:23.201Z,6.32
2023-05-19T21:29:09.674Z,6.18
2023-05-19T21:31:56.264Z,6.28
2023-05-19T21:34:41.810Z,7.15
2023-05-19T21:37:27.460Z,7.82
2023-05-19T21:40:13.350Z,6.40
2023-05-19T21:42:58.871Z,6.88
2023-05-19T21:45:44.337Z,7.53
2023-05-19T21:48:30.077Z,7.13
2023-05-19T21:51:15.730Z,6.75
2023-05-19T21:54:02.374Z,6.15
2023-05-19T21:56:48.097Z,6.60
2023-05-19T21:59:33.481Z,6.82
2023-05-19T22:02:19.001Z,6.97
2023-05-19T22:05:04.753Z,6.47
2023-05-19T22:07:50.545Z,6.50
2023-05-19T22:10:37.376Z,6.97
2023-05-19T22:13:23.348Z,6.05
2023-05-19T22:16:09.435Z,6.63
2023-05-19T22:18:55.200Z,6.93
2023-05-19T22:21:40.840Z,7.05
2023-05-19T22:24:26.456Z,6.63
2023-05-19T22:27:12.320Z,7.25
2023-05-19T22:29:59.768Z,6.25
2023-05-19T22:32:45.797Z,7.05
2023-05-19T22:35:31.318Z,6.88
2023-05-19T22:38:16.939Z,5.75
2023-05-19T22:41:02.579Z,6.35
2023-05-19T22:43:47.995Z,6.40
2023-05-19T22:46:34.247Z,6.53
2023-05-19T22:49:22.936Z,6.32
2023-05-19T22:52:11.045Z,6.20
2023-05-19T22:54:57.130Z,6.15
2023-05-19T22:57:42.798Z,5.78
2023-05-19T23:00:28.238Z,5.47
2023-05-19T23:03:13.996Z,6.30
2023-05-19T23:05:59.186Z,6.55
2023-05-19T23:08:46.837Z,6.38
2023-05-19T23:11:34.154Z,5.40
2023-05-19T23:14:27.074Z,6.45
2023-05-19T23:17:12.613Z,6.15
2023-05-19T23:19:58.088Z,5.65
2023-05-19T23:22:43.631Z,5.50
2023-05-19T23:25:29.246Z,5.40
2023-05-19T23:28:14.743Z,5.75
2023-05-19T23:31:00.082Z,5.95
2023-05-19T23:33:45.874Z,6.03
2023-05-19T23:36:31.786Z,6.78
2023-05-19T23:39:17.569Z,5.25
2023-05-19T23:42:03.500Z,5.47
2023-05-19T23:44:49.040Z,6.25
2023-05-19T23:47:34.564Z,5.35
2023-05-19T23:50:20.158Z,5.38
2023-05-19T23:53:05.624Z,6.00
2023-05-19T23:55:51.632Z,5.55
2023-05-19T23:58:37.042Z,5.78
